Airport Name : La Grande Riviere

Other Name : La Grande Rivier

ICAO : CYGL

IATA : YGL

FAA :

Latitude : 53.625278

Longitude : -77.704167

Country : Canada

Local Date and Time : 18 Jul 2024 18:28

 

TAF (Terminal Aerodrome Forecast)

TAF CYGL 181740Z 1818/1918 28010G20KT P6SM SCT190 FM190100 25012KT P6SM -SHRA OVC040 FM190300 20010KT 6SM -SHRA BR BKN012 OVC040 PROB30 1904/1906 2SM TSRA BR BKN008 OVC012CB FM190900 25010KT 5SM BR SCT006 PROB40 1909/1912 2SM BR OVC006 FM191200 30008KT P6SM BKN015 FM191500 32008KT P6SM SKC RMK NXT FCST BY 190000Z

 

METAR (METeorological Aerodrome Report)

CYGL 182200Z 24007KT 15SM BKN110 OVC240 18/07 A2983 RMK AC6CI2 SLP109 DENSITY ALT 1300FT

CYGL 182100Z 25012KT 15SM BKN100 OVC240 19/06 A2984 RMK AC5CI3 SLP113 DENSITY ALT 1400FT

CYGL 182000Z 25014KT 15SM FEW060 FEW140 OVC240 20/05 A2985 RMK SC1AC1CI7 SC TR SLP116 DENSITY ALT 1500FT

CYGL 181900Z 25009G16KT 15SM FEW060 FEW110 OVC240 20/00 A2985 RMK SC1AC1CI7 SC TR SLP114 DENSITY ALT 1600FT